sensor_id;sensor_type;location;lat;lon;timestamp;temperature;humidity
70734;DHT22;58320;48.804;9.252;2023-04-03T00:00:40;4.10;70.60
70734;DHT22;58320;48.804;9.252;2023-04-03T00:03:05;4.10;71.10
70734;DHT22;58320;48.804;9.252;2023-04-03T00:05:31;4.10;71.30
70734;DHT22;58320;48.804;9.252;2023-04-03T00:07:57;4.00;71.50
70734;DHT22;58320;48.804;9.252;2023-04-03T00:10:23;4.00;71.20
70734;DHT22;58320;48.804;9.252;2023-04-03T00:12:49;4.00;71.20
70734;DHT22;58320;48.804;9.252;2023-04-03T00:15:14;4.00;70.80
70734;DHT22;58320;48.804;9.252;2023-04-03T00:17:41;3.90;71.40
70734;DHT22;58320;48.804;9.252;2023-04-03T00:20:07;3.90;71.50
70734;DHT22;58320;48.804;9.252;2023-04-03T00:22:33;3.90;71.10
70734;DHT22;58320;48.804;9.252;2023-04-03T00:24:59;3.80;71.50
70734;DHT22;58320;48.804;9.252;2023-04-03T00:27:25;3.80;71.50
70734;DHT22;58320;48.804;9.252;2023-04-03T00:29:51;3.80;71.60
70734;DHT22;58320;48.804;9.252;2023-04-03T00:32:17;3.80;71.90
70734;DHT22;58320;48.804;9.252;2023-04-03T00:34:43;3.80;71.60
70734;DHT22;58320;48.804;9.252;2023-04-03T00:37:09;3.80;71.40
70734;DHT22;58320;48.804;9.252;2023-04-03T00:39:35;3.80;71.90
70734;DHT22;58320;48.804;9.252;2023-04-03T00:42:00;3.80;71.90
70734;DHT22;58320;48.804;9.252;2023-04-03T00:47:02;3.80;72.20
70734;DHT22;58320;48.804;9.252;2023-04-03T00:49:29;3.80;72.60
70734;DHT22;58320;48.804;9.252;2023-04-03T00:51:55;3.80;72.10
70734;DHT22;58320;48.804;9.252;2023-04-03T00:54:22;3.80;72.50
70734;DHT22;58320;48.804;9.252;2023-04-03T00:56:51;3.80;72.50
70734;DHT22;58320;48.804;9.252;2023-04-03T00:59:21;3.80;72.50
70734;DHT22;58320;48.804;9.252;2023-04-03T01:01:52;3.90;72.00
70734;DHT22;58320;48.804;9.252;2023-04-03T01:04:32;3.90;72.30
70734;DHT22;58320;48.804;9.252;2023-04-03T01:07:04;3.80;71.80
70734;DHT22;58320;48.804;9.252;2023-04-03T01:09:38;3.80;72.40
70734;DHT22;58320;48.804;9.252;2023-04-03T01:12:18;3.70;72.50
70734;DHT22;58320;48.804;9.252;2023-04-03T01:14:54;3.70;72.80
70734;DHT22;58320;48.804;9.252;2023-04-03T01:17:46;3.70;73.00
70734;DHT22;58320;48.804;9.252;2023-04-03T01:25:54;3.60;73.20
70734;DHT22;58320;48.804;9.252;2023-04-03T01:31:22;3.60;73.40
70734;DHT22;58320;48.804;9.252;2023-04-03T01:33:51;3.60;73.30
70734;DHT22;58320;48.804;9.252;2023-04-03T01:36:20;3.50;73.40
70734;DHT22;58320;48.804;9.252;2023-04-03T01:38:57;3.50;73.50
70734;DHT22;58320;48.804;9.252;2023-04-03T01:41:24;3.50;73.70
70734;DHT22;58320;48.804;9.252;2023-04-03T01:43:51;3.50;73.50
70734;DHT22;58320;48.804;9.252;2023-04-03T01:46:18;3.50;73.40
70734;DHT22;58320;48.804;9.252;2023-04-03T01:48:45;3.50;73.70
70734;DHT22;58320;48.804;9.252;2023-04-03T01:51:11;3.60;72.70
70734;DHT22;58320;48.804;9.252;2023-04-03T01:53:37;3.60;73.30
70734;DHT22;58320;48.804;9.252;2023-04-03T01:56:03;3.60;73.50
70734;DHT22;58320;48.804;9.252;2023-04-03T01:58:29;3.60;73.70
70734;DHT22;58320;48.804;9.252;2023-04-03T02:00:55;3.60;73.00
70734;DHT22;58320;48.804;9.252;2023-04-03T02:03:21;3.60;72.90
70734;DHT22;58320;48.804;9.252;2023-04-03T02:05:47;3.60;73.20
70734;DHT22;58320;48.804;9.252;2023-04-03T02:08:13;3.60;72.80
70734;DHT22;58320;48.804;9.252;2023-04-03T02:10:39;3.60;73.20
70734;DHT22;58320;48.804;9.252;2023-04-03T02:13:05;3.60;73.20
70734;DHT22;58320;48.804;9.252;2023-04-03T02:15:31;3.60;72.90
70734;DHT22;58320;48.804;9.252;2023-04-03T02:17:57;3.60;73.00
70734;DHT22;58320;48.804;9.252;2023-04-03T02:20:22;3.60;71.80
70734;DHT22;58320;48.804;9.252;2023-04-03T02:22:48;3.60;71.20
70734;DHT22;58320;48.804;9.252;2023-04-03T02:25:14;3.60;71.20
70734;DHT22;58320;48.804;9.252;2023-04-03T02:27:41;3.60;71.40
70734;DHT22;58320;48.804;9.252;2023-04-03T02:30:07;3.60;70.90
70734;DHT22;58320;48.804;9.252;2023-04-03T02:32:34;3.60;70.50
70734;DHT22;58320;48.804;9.252;2023-04-03T02:35:00;3.60;70.60
70734;DHT22;58320;48.804;9.252;2023-04-03T02:37:26;3.60;70.70
70734;DHT22;58320;48.804;9.252;2023-04-03T02:39:51;3.60;70.80
70734;DHT22;58320;48.804;9.252;2023-04-03T02:42:17;3.60;70.60
70734;DHT22;58320;48.804;9.252;2023-04-03T02:44:43;3.60;71.10
70734;DHT22;58320;48.804;9.252;2023-04-03T02:47:09;3.70;70.80
70734;DHT22;58320;48.804;9.252;2023-04-03T02:49:35;3.70;70.30
70734;DHT22;58320;48.804;9.252;2023-04-03T02:52:01;3.60;69.90
70734;DHT22;58320;48.804;9.252;2023-04-03T02:54:27;3.70;69.30
70734;DHT22;58320;48.804;9.252;2023-04-03T02:56:56;3.60;69.80
70734;DHT22;58320;48.804;9.252;2023-04-03T02:59:22;3.70;70.00
70734;DHT22;58320;48.804;9.252;2023-04-03T03:01:48;3.70;70.40
70734;DHT22;58320;48.804;9.252;2023-04-03T03:04:14;3.70;70.60
70734;DHT22;58320;48.804;9.252;2023-04-03T03:06:40;3.70;70.10
70734;DHT22;58320;48.804;9.252;2023-04-03T03:09:06;3.70;69.80
70734;DHT22;58320;48.804;9.252;2023-04-03T03:11:32;3.70;70.00
70734;DHT22;58320;48.804;9.252;2023-04-03T03:13:58;3.70;70.10
70734;DHT22;58320;48.804;9.252;2023-04-03T03:16:23;3.70;70.10
70734;DHT22;58320;48.804;9.252;2023-04-03T03:18:49;3.70;70.10
70734;DHT22;58320;48.804;9.252;2023-04-03T03:21:15;3.70;69.90
70734;DHT22;58320;48.804;9.252;2023-04-03T03:23:41;3.70;70.10
70734;DHT22;58320;48.804;9.252;2023-04-03T03:28:39;3.70;70.10
70734;DHT22;58320;48.804;9.252;2023-04-03T03:31:07;3.70;70.10
70734;DHT22;58320;48.804;9.252;2023-04-03T03:33:33;3.70;69.90
70734;DHT22;58320;48.804;9.252;2023-04-03T03:35:59;3.80;70.10
70734;DHT22;58320;48.804;9.252;2023-04-03T03:38:25;3.80;69.20
70734;DHT22;58320;48.804;9.252;2023-04-03T03:40:51;3.80;69.40
70734;DHT22;58320;48.804;9.252;2023-04-03T03:43:18;3.80;68.60
70734;DHT22;58320;48.804;9.252;2023-04-03T03:45:46;3.70;68.20
70734;DHT22;58320;48.804;9.252;2023-04-03T03:48:15;3.70;68.80
70734;DHT22;58320;48.804;9.252;2023-04-03T03:50:41;3.80;68.10
70734;DHT22;58320;48.804;9.252;2023-04-03T03:53:07;3.70;67.60
70734;DHT22;58320;48.804;9.252;2023-04-03T03:55:33;3.70;68.30
70734;DHT22;58320;48.804;9.252;2023-04-03T03:57:58;3.80;68.00
70734;DHT22;58320;48.804;9.252;2023-04-03T04:00:26;3.80;68.40
70734;DHT22;58320;48.804;9.252;2023-04-03T04:02:52;3.80;68.20
70734;DHT22;58320;48.804;9.252;2023-04-03T04:05:18;3.80;67.60
70734;DHT22;58320;48.804;9.252;2023-04-03T04:07:45;3.80;68.30
70734;DHT22;58320;48.804;9.252;2023-04-03T04:10:10;3.80;68.00
70734;DHT22;58320;48.804;9.252;2023-04-03T04:12:36;3.80;68.60
70734;DHT22;58320;48.804;9.252;2023-04-03T04:15:03;3.80;68.60
70734;DHT22;58320;48.804;9.252;2023-04-03T04:17:29;3.90;68.20
70734;DHT22;58320;48.804;9.252;2023-04-03T04:19:54;3.90;68.40
70734;DHT22;58320;48.804;9.252;2023-04-03T04:22:20;3.80;66.80
70734;DHT22;58320;48.804;9.252;2023-04-03T04:24:46;3.80;66.70
70734;DHT22;58320;48.804;9.252;2023-04-03T04:27:12;3.80;66.70
70734;DHT22;58320;48.804;9.252;2023-04-03T04:29:37;3.80;66.50
70734;DHT22;58320;48.804;9.252;2023-04-03T04:32:04;3.80;66.50
70734;DHT22;58320;48.804;9.252;2023-04-03T04:34:30;3.90;66.40
70734;DHT22;58320;48.804;9.252;2023-04-03T04:36:56;3.90;66.80
70734;DHT22;58320;48.804;9.252;2023-04-03T04:39:22;3.90;66.00
70734;DHT22;58320;48.804;9.252;2023-04-03T04:41:47;3.90;67.30
70734;DHT22;58320;48.804;9.252;2023-04-03T04:44:13;3.80;67.70
70734;DHT22;58320;48.804;9.252;2023-04-03T04:46:40;3.80;68.00
70734;DHT22;58320;48.804;9.252;2023-04-03T04:49:05;3.80;67.50
70734;DHT22;58320;48.804;9.252;2023-04-03T04:51:31;3.80;66.90
70734;DHT22;58320;48.804;9.252;2023-04-03T04:53:57;3.80;67.80
70734;DHT22;58320;48.804;9.252;2023-04-03T04:56:22;3.80;67.70
70734;DHT22;58320;48.804;9.252;2023-04-03T04:58:48;3.80;67.10
70734;DHT22;58320;48.804;9.252;2023-04-03T05:01:14;3.80;66.60
70734;DHT22;58320;48.804;9.252;2023-04-03T05:03:40;3.80;64.60
70734;DHT22;58320;48.804;9.252;2023-04-03T05:06:06;3.80;64.70
70734;DHT22;58320;48.804;9.252;2023-04-03T05:08:32;3.90;65.70
70734;DHT22;58320;48.804;9.252;2023-04-03T05:10:58;3.80;65.80
70734;DHT22;58320;48.804;9.252;2023-04-03T05:13:24;3.90;65.90
70734;DHT22;58320;48.804;9.252;2023-04-03T05:15:49;3.90;65.90
70734;DHT22;58320;48.804;9.252;2023-04-03T05:18:15;4.00;66.40
70734;DHT22;58320;48.804;9.252;2023-04-03T05:20:41;4.00;65.40
70734;DHT22;58320;48.804;9.252;2023-04-03T05:23:09;4.00;65.90
70734;DHT22;58320;48.804;9.252;2023-04-03T05:25:38;4.00;66.30
70734;DHT22;58320;48.804;9.252;2023-04-03T05:28:04;4.00;66.70
70734;DHT22;58320;48.804;9.252;2023-04-03T05:30:30;4.10;66.90
70734;DHT22;58320;48.804;9.252;2023-04-03T05:32:55;4.10;67.00
70734;DHT22;58320;48.804;9.252;2023-04-03T05:35:21;4.10;67.20
70734;DHT22;58320;48.804;9.252;2023-04-03T05:37:47;4.10;67.20
70734;DHT22;58320;48.804;9.252;2023-04-03T05:40:13;4.10;67.20
70734;DHT22;58320;48.804;9.252;2023-04-03T05:42:40;4.10;67.10
70734;DHT22;58320;48.804;9.252;2023-04-03T05:45:06;4.10;66.50
70734;DHT22;58320;48.804;9.252;2023-04-03T05:47:32;4.10;66.00
70734;DHT22;58320;48.804;9.252;2023-04-03T05:49:58;4.10;66.50
70734;DHT22;58320;48.804;9.252;2023-04-03T05:52:37;4.00;66.30
70734;DHT22;58320;48.804;9.252;2023-04-03T05:55:04;4.00;65.60
70734;DHT22;58320;48.804;9.252;2023-04-03T05:57:30;4.00;65.60
70734;DHT22;58320;48.804;9.252;2023-04-03T05:59:56;4.10;65.80
70734;DHT22;58320;48.804;9.252;2023-04-03T06:02:23;4.10;65.00
70734;DHT22;58320;48.804;9.252;2023-04-03T06:04:49;4.10;65.30
70734;DHT22;58320;48.804;9.252;2023-04-03T06:07:18;4.20;64.00
70734;DHT22;58320;48.804;9.252;2023-04-03T06:09:46;4.20;64.40
70734;DHT22;58320;48.804;9.252;2023-04-03T06:12:13;4.20;64.10
70734;DHT22;58320;48.804;9.252;2023-04-03T06:14:39;4.30;63.70
70734;DHT22;58320;48.804;9.252;2023-04-03T06:17:05;4.40;64.20
70734;DHT22;58320;48.804;9.252;2023-04-03T06:19:32;4.50;64.90
70734;DHT22;58320;48.804;9.252;2023-04-03T06:21:57;4.60;64.60
70734;DHT22;58320;48.804;9.252;2023-04-03T06:24:23;4.80;64.20
70734;DHT22;58320;48.804;9.252;2023-04-03T06:26:50;4.90;64.10
70734;DHT22;58320;48.804;9.252;2023-04-03T06:29:21;5.00;63.80
70734;DHT22;58320;48.804;9.252;2023-04-03T06:31:47;5.00;63.00
70734;DHT22;58320;48.804;9.252;2023-04-03T06:34:14;5.00;63.10
70734;DHT22;58320;48.804;9.252;2023-04-03T06:36:40;5.10;62.60
70734;DHT22;58320;48.804;9.252;2023-04-03T06:39:11;5.10;62.70
70734;DHT22;58320;48.804;9.252;2023-04-03T06:41:39;5.20;62.90
70734;DHT22;58320;48.804;9.252;2023-04-03T06:44:05;5.20;62.60
70734;DHT22;58320;48.804;9.252;2023-04-03T06:46:30;5.30;62.50
70734;DHT22;58320;48.804;9.252;2023-04-03T06:48:56;5.30;61.40
70734;DHT22;58320;48.804;9.252;2023-04-03T06:51:27;5.20;62.40
70734;DHT22;58320;48.804;9.252;2023-04-03T06:53:55;5.20;61.80
70734;DHT22;58320;48.804;9.252;2023-04-03T06:56:23;5.20;62.20
70734;DHT22;58320;48.804;9.252;2023-04-03T06:58:50;5.20;62.00
70734;DHT22;58320;48.804;9.252;2023-04-03T07:01:17;5.30;61.40
70734;DHT22;58320;48.804;9.252;2023-04-03T07:03:45;5.40;61.30
70734;DHT22;58320;48.804;9.252;2023-04-03T07:06:13;5.50;61.00
70734;DHT22;58320;48.804;9.252;2023-04-03T07:08:40;5.40;61.40
70734;DHT22;58320;48.804;9.252;2023-04-03T07:11:08;5.50;61.60
70734;DHT22;58320;48.804;9.252;2023-04-03T07:13:35;5.60;61.70
70734;DHT22;58320;48.804;9.252;2023-04-03T07:16:01;5.70;61.70
70734;DHT22;58320;48.804;9.252;2023-04-03T07:18:29;5.80;61.40
70734;DHT22;58320;48.804;9.252;2023-04-03T07:20:55;5.90;60.30
70734;DHT22;58320;48.804;9.252;2023-04-03T07:23:23;5.90;60.10
70734;DHT22;58320;48.804;9.252;2023-04-03T07:25:50;5.90;60.90
70734;DHT22;58320;48.804;9.252;2023-04-03T07:28:18;6.00;60.10
70734;DHT22;58320;48.804;9.252;2023-04-03T07:30:50;6.10;60.80
70734;DHT22;58320;48.804;9.252;2023-04-03T07:33:19;6.40;60.40
70734;DHT22;58320;48.804;9.252;2023-04-03T07:35:47;6.60;59.90
70734;DHT22;58320;48.804;9.252;2023-04-03T07:38:13;6.70;58.50
70734;DHT22;58320;48.804;9.252;2023-04-03T07:40:39;6.80;58.00
70734;DHT22;58320;48.804;9.252;2023-04-03T07:43:05;6.80;57.60
70734;DHT22;58320;48.804;9.252;2023-04-03T07:45:33;6.80;57.80
70734;DHT22;58320;48.804;9.252;2023-04-03T07:48:00;6.90;57.40
70734;DHT22;58320;48.804;9.252;2023-04-03T07:50:26;6.80;57.40
70734;DHT22;58320;48.804;9.252;2023-04-03T07:52:52;6.80;56.80
70734;DHT22;58320;48.804;9.252;2023-04-03T07:55:20;6.80;57.10
70734;DHT22;58320;48.804;9.252;2023-04-03T07:57:45;6.80;57.60
70734;DHT22;58320;48.804;9.252;2023-04-03T08:00:12;6.90;57.40
70734;DHT22;58320;48.804;9.252;2023-04-03T08:02:38;6.90;58.60
70734;DHT22;58320;48.804;9.252;2023-04-03T08:05:05;7.00;57.90
70734;DHT22;58320;48.804;9.252;2023-04-03T08:07:31;6.90;57.70
70734;DHT22;58320;48.804;9.252;2023-04-03T08:09:56;7.00;57.90
70734;DHT22;58320;48.804;9.252;2023-04-03T08:12:22;6.70;58.80
70734;DHT22;58320;48.804;9.252;2023-04-03T08:14:48;6.80;58.70
70734;DHT22;58320;48.804;9.252;2023-04-03T08:17:14;6.90;58.10
70734;DHT22;58320;48.804;9.252;2023-04-03T08:19:40;6.90;57.60
70734;DHT22;58320;48.804;9.252;2023-04-03T08:22:06;6.80;58.60
70734;DHT22;58320;48.804;9.252;2023-04-03T08:24:33;6.90;58.30
70734;DHT22;58320;48.804;9.252;2023-04-03T08:26:59;6.90;58.50
70734;DHT22;58320;48.804;9.252;2023-04-03T08:29:26;7.10;58.90
70734;DHT22;58320;48.804;9.252;2023-04-03T08:31:52;7.30;57.50
70734;DHT22;58320;48.804;9.252;2023-04-03T08:34:19;7.50;57.40
70734;DHT22;58320;48.804;9.252;2023-04-03T08:36:46;7.40;56.50
70734;DHT22;58320;48.804;9.252;2023-04-03T08:39:12;7.20;57.30
70734;DHT22;58320;48.804;9.252;2023-04-03T08:41:39;7.20;57.20
70734;DHT22;58320;48.804;9.252;2023-04-03T08:49:59;7.20;57.10
70734;DHT22;58320;48.804;9.252;2023-04-03T08:52:39;7.40;55.90
70734;DHT22;58320;48.804;9.252;2023-04-03T08:55:40;7.30;56.50
70734;DHT22;58320;48.804;9.252;2023-04-03T08:58:29;7.20;56.40
70734;DHT22;58320;48.804;9.252;2023-04-03T09:03:23;7.30;57.10
70734;DHT22;58320;48.804;9.252;2023-04-03T09:06:22;7.40;56.00
70734;DHT22;58320;48.804;9.252;2023-04-03T09:14:46;7.80;54.70
70734;DHT22;58320;48.804;9.252;2023-04-03T09:23:27;7.60;54.30
70734;DHT22;58320;48.804;9.252;2023-04-03T09:26:07;7.60;54.70
70734;DHT22;58320;48.804;9.252;2023-04-03T09:28:38;7.60;53.90
70734;DHT22;58320;48.804;9.252;2023-04-03T09:31:28;7.70;53.80
70734;DHT22;58320;48.804;9.252;2023-04-03T09:34:02;7.90;53.00
70734;DHT22;58320;48.804;9.252;2023-04-03T09:36:39;8.00;52.80
70734;DHT22;58320;48.804;9.252;2023-04-03T09:39:19;7.90;53.30
70734;DHT22;58320;48.804;9.252;2023-04-03T09:42:11;8.00;52.30
70734;DHT22;58320;48.804;9.252;2023-04-03T09:44:55;8.00;52.60
70734;DHT22;58320;48.804;9.252;2023-04-03T09:47:33;8.10;52.30
70734;DHT22;58320;48.804;9.252;2023-04-03T09:52:38;8.20;52.80
70734;DHT22;58320;48.804;9.252;2023-04-03T09:55:15;8.30;52.90
70734;DHT22;58320;48.804;9.252;2023-04-03T09:57:43;8.40;53.30
70734;DHT22;58320;48.804;9.252;2023-04-03T10:00:23;8.40;52.00
70734;DHT22;58320;48.804;9.252;2023-04-03T10:02:53;8.40;52.30
70734;DHT22;58320;48.804;9.252;2023-04-03T10:05:27;8.40;51.50
70734;DHT22;58320;48.804;9.252;2023-04-03T10:10:41;8.40;51.70
70734;DHT22;58320;48.804;9.252;2023-04-03T10:13:17;8.60;52.00
70734;DHT22;58320;48.804;9.252;2023-04-03T10:16:00;8.80;51.10
70734;DHT22;58320;48.804;9.252;2023-04-03T10:21:19;9.20;50.30
70734;DHT22;58320;48.804;9.252;2023-04-03T10:38:09;7.90;51.80
70734;DHT22;58320;48.804;9.252;2023-04-03T10:40:52;7.70;52.90
70734;DHT22;58320;48.804;9.252;2023-04-03T10:46:35;7.80;52.30
70734;DHT22;58320;48.804;9.252;2023-04-03T10:49:31;7.90;51.70
70734;DHT22;58320;48.804;9.252;2023-04-03T10:57:44;7.90;51.80
70734;DHT22;58320;48.804;9.252;2023-04-03T11:00:25;8.00;50.30
70734;DHT22;58320;48.804;9.252;2023-04-03T11:02:58;8.10;51.40
70734;DHT22;58320;48.804;9.252;2023-04-03T11:05:34;8.30;50.20
70734;DHT22;58320;48.804;9.252;2023-04-03T11:11:08;8.70;49.60
70734;DHT22;58320;48.804;9.252;2023-04-03T11:13:49;8.80;48.40
70734;DHT22;58320;48.804;9.252;2023-04-03T11:16:24;8.70;48.10
70734;DHT22;58320;48.804;9.252;2023-04-03T11:19:02;8.70;47.60
70734;DHT22;58320;48.804;9.252;2023-04-03T11:21:38;8.50;45.50
70734;DHT22;58320;48.804;9.252;2023-04-03T11:24:25;8.30;46.30
70734;DHT22;58320;48.804;9.252;2023-04-03T11:26:54;8.20;49.20
70734;DHT22;58320;48.804;9.252;2023-04-03T11:29:29;8.20;49.40
70734;DHT22;58320;48.804;9.252;2023-04-03T11:32:27;8.40;49.60
70734;DHT22;58320;48.804;9.252;2023-04-03T11:35:31;8.70;49.50
70734;DHT22;58320;48.804;9.252;2023-04-03T11:37:59;8.80;48.10
70734;DHT22;58320;48.804;9.252;2023-04-03T11:40:35;8.90;47.80
70734;DHT22;58320;48.804;9.252;2023-04-03T11:43:04;9.00;47.60
70734;DHT22;58320;48.804;9.252;2023-04-03T11:51:02;8.80;47.90
70734;DHT22;58320;48.804;9.252;2023-04-03T11:53:48;8.90;46.80
70734;DHT22;58320;48.804;9.252;2023-04-03T12:01:46;9.20;47.60
70734;DHT22;58320;48.804;9.252;2023-04-03T12:04:14;9.30;48.10
70734;DHT22;58320;48.804;9.252;2023-04-03T12:06:52;9.10;46.80
70734;DHT22;58320;48.804;9.252;2023-04-03T12:09:25;8.80;47.30
70734;DHT22;58320;48.804;9.252;2023-04-03T12:14:56;8.40;48.60
70734;DHT22;58320;48.804;9.252;2023-04-03T12:17:42;8.70;48.70
70734;DHT22;58320;48.804;9.252;2023-04-03T12:20:51;9.00;48.70
70734;DHT22;58320;48.804;9.252;2023-04-03T12:38:05;8.70;45.70
70734;DHT22;58320;48.804;9.252;2023-04-03T12:41:18;8.70;45.40
70734;DHT22;58320;48.804;9.252;2023-04-03T12:46:24;8.80;46.10
70734;DHT22;58320;48.804;9.252;2023-04-03T12:48:56;8.80;45.70
70734;DHT22;58320;48.804;9.252;2023-04-03T12:51:39;8.70;45.90
70734;DHT22;58320;48.804;9.252;2023-04-03T12:56:49;8.90;46.20
70734;DHT22;58320;48.804;9.252;2023-04-03T12:59:18;8.90;46.30
70734;DHT22;58320;48.804;9.252;2023-04-03T13:01:59;9.10;45.10
70734;DHT22;58320;48.804;9.252;2023-04-03T13:04:31;9.20;44.40
70734;DHT22;58320;48.804;9.252;2023-04-03T13:06:58;9.50;45.60
70734;DHT22;58320;48.804;9.252;2023-04-03T13:09:26;9.70;42.90
70734;DHT22;58320;48.804;9.252;2023-04-03T13:12:02;9.70;43.40
70734;DHT22;58320;48.804;9.252;2023-04-03T13:14:29;9.90;43.10
70734;DHT22;58320;48.804;9.252;2023-04-03T13:16:58;9.80;42.90
70734;DHT22;58320;48.804;9.252;2023-04-03T13:19:27;9.70;42.30
70734;DHT22;58320;48.804;9.252;2023-04-03T13:22:01;9.30;43.40
70734;DHT22;58320;48.804;9.252;2023-04-03T13:24:33;9.20;44.00
70734;DHT22;58320;48.804;9.252;2023-04-03T13:27:00;9.10;43.70
70734;DHT22;58320;48.804;9.252;2023-04-03T13:29:32;9.00;42.90
70734;DHT22;58320;48.804;9.252;2023-04-03T13:32:01;8.90;44.00
70734;DHT22;58320;48.804;9.252;2023-04-03T13:34:40;9.00;43.60
70734;DHT22;58320;48.804;9.252;2023-04-03T13:37:11;9.60;42.60
70734;DHT22;58320;48.804;9.252;2023-04-03T13:42:35;10.80;39.90
70734;DHT22;58320;48.804;9.252;2023-04-03T13:45:25;10.60;39.60
70734;DHT22;58320;48.804;9.252;2023-04-03T13:48:08;10.70;39.80
70734;DHT22;58320;48.804;9.252;2023-04-03T13:51:39;10.90;39.90
70734;DHT22;58320;48.804;9.252;2023-04-03T13:54:00;11.00;40.70
70734;DHT22;58320;48.804;9.252;2023-04-03T13:56:36;10.80;40.80
70734;DHT22;58320;48.804;9.252;2023-04-03T13:59:28;10.80;40.50
70734;DHT22;58320;48.804;9.252;2023-04-03T14:01:55;10.50;41.20
70734;DHT22;58320;48.804;9.252;2023-04-03T14:07:11;10.20;43.60
70734;DHT22;58320;48.804;9.252;2023-04-03T14:09:37;10.10;41.30
70734;DHT22;58320;48.804;9.252;2023-04-03T14:12:24;10.00;41.40
70734;DHT22;58320;48.804;9.252;2023-04-03T14:14:52;9.80;41.50
70734;DHT22;58320;48.804;9.252;2023-04-03T14:17:21;9.70;42.20
70734;DHT22;58320;48.804;9.252;2023-04-03T14:19:50;9.70;42.50
70734;DHT22;58320;48.804;9.252;2023-04-03T14:24:49;9.70;42.30
70734;DHT22;58320;48.804;9.252;2023-04-03T14:27:22;9.80;41.50
70734;DHT22;58320;48.804;9.252;2023-04-03T14:29:51;10.40;40.30
70734;DHT22;58320;48.804;9.252;2023-04-03T14:32:22;11.60;38.70
70734;DHT22;58320;48.804;9.252;2023-04-03T14:34:50;13.30;37.00
70734;DHT22;58320;48.804;9.252;2023-04-03T14:37:19;14.20;35.50
70734;DHT22;58320;48.804;9.252;2023-04-03T14:39:55;13.40;35.00
70734;DHT22;58320;48.804;9.252;2023-04-03T14:42:28;12.10;35.80
70734;DHT22;58320;48.804;9.252;2023-04-03T14:44:56;11.00;38.20
70734;DHT22;58320;48.804;9.252;2023-04-03T14:47:26;10.20;39.80
70734;DHT22;58320;48.804;9.252;2023-04-03T14:49:53;10.00;40.10
70734;DHT22;58320;48.804;9.252;2023-04-03T14:52:25;9.90;40.60
70734;DHT22;58320;48.804;9.252;2023-04-03T14:54:56;9.90;40.70
70734;DHT22;58320;48.804;9.252;2023-04-03T14:57:24;9.80;40.30
70734;DHT22;58320;48.804;9.252;2023-04-03T14:59:51;9.70;40.10
70734;DHT22;58320;48.804;9.252;2023-04-03T15:02:28;9.60;39.80
70734;DHT22;58320;48.804;9.252;2023-04-03T15:04:58;9.50;40.00
70734;DHT22;58320;48.804;9.252;2023-04-03T15:07:27;9.80;40.60
70734;DHT22;58320;48.804;9.252;2023-04-03T15:09:54;10.10;39.40
70734;DHT22;58320;48.804;9.252;2023-04-03T15:12:23;11.30;37.90
70734;DHT22;58320;48.804;9.252;2023-04-03T15:14:50;13.10;35.70
70734;DHT22;58320;48.804;9.252;2023-04-03T15:17:19;14.10;32.30
70734;DHT22;58320;48.804;9.252;2023-04-03T15:19:47;13.20;33.40
70734;DHT22;58320;48.804;9.252;2023-04-03T15:22:15;12.10;34.90
70734;DHT22;58320;48.804;9.252;2023-04-03T15:24:43;11.20;36.10
70734;DHT22;58320;48.804;9.252;2023-04-03T15:27:10;10.40;37.70
70734;DHT22;58320;48.804;9.252;2023-04-03T15:29:38;9.90;39.00
70734;DHT22;58320;48.804;9.252;2023-04-03T15:32:05;9.50;39.90
70734;DHT22;58320;48.804;9.252;2023-04-03T15:34:31;9.30;40.90
70734;DHT22;58320;48.804;9.252;2023-04-03T15:36:57;9.30;41.00
70734;DHT22;58320;48.804;9.252;2023-04-03T15:39:24;9.20;41.10
70734;DHT22;58320;48.804;9.252;2023-04-03T15:41:51;9.10;41.00
70734;DHT22;58320;48.804;9.252;2023-04-03T15:44:20;9.60;41.00
70734;DHT22;58320;48.804;9.252;2023-04-03T15:46:47;11.00;37.80
70734;DHT22;58320;48.804;9.252;2023-04-03T15:49:21;12.40;36.10
70734;DHT22;58320;48.804;9.252;2023-04-03T15:51:47;13.40;34.90
70734;DHT22;58320;48.804;9.252;2023-04-03T15:54:13;14.30;33.80
70734;DHT22;58320;48.804;9.252;2023-04-03T15:56:38;14.90;31.90
70734;DHT22;58320;48.804;9.252;2023-04-03T15:59:04;15.20;31.90
70734;DHT22;58320;48.804;9.252;2023-04-03T16:01:31;15.20;31.90
70734;DHT22;58320;48.804;9.252;2023-04-03T16:03:57;15.70;30.70
70734;DHT22;58320;48.804;9.252;2023-04-03T16:06:24;15.90;29.90
70734;DHT22;58320;48.804;9.252;2023-04-03T16:08:51;15.30;30.80
70734;DHT22;58320;48.804;9.252;2023-04-03T16:11:16;15.10;31.40
70734;DHT22;58320;48.804;9.252;2023-04-03T16:13:42;15.90;30.50
70734;DHT22;58320;48.804;9.252;2023-04-03T16:16:09;15.30;29.80
70734;DHT22;58320;48.804;9.252;2023-04-03T16:18:35;13.80;31.70
70734;DHT22;58320;48.804;9.252;2023-04-03T16:21:01;12.30;33.60
70734;DHT22;58320;48.804;9.252;2023-04-03T16:23:27;12.10;34.60
70734;DHT22;58320;48.804;9.252;2023-04-03T16:25:53;13.50;33.30
70734;DHT22;58320;48.804;9.252;2023-04-03T16:28:19;14.50;31.60
70734;DHT22;58320;48.804;9.252;2023-04-03T16:30:46;15.50;30.30
70734;DHT22;58320;48.804;9.252;2023-04-03T16:33:13;16.40;29.30
70734;DHT22;58320;48.804;9.252;2023-04-03T16:35:39;16.40;29.50
70734;DHT22;58320;48.804;9.252;2023-04-03T16:38:07;15.60;30.60
70734;DHT22;58320;48.804;9.252;2023-04-03T16:40:33;14.30;31.40
70734;DHT22;58320;48.804;9.252;2023-04-03T16:43:00;13.00;33.60
70734;DHT22;58320;48.804;9.252;2023-04-03T16:45:27;12.10;34.60
70734;DHT22;58320;48.804;9.252;2023-04-03T16:47:52;11.30;36.00
70734;DHT22;58320;48.804;9.252;2023-04-03T16:50:18;10.80;35.90
70734;DHT22;58320;48.804;9.252;2023-04-03T16:52:45;10.20;37.10
70734;DHT22;58320;48.804;9.252;2023-04-03T16:55:12;9.90;37.80
70734;DHT22;58320;48.804;9.252;2023-04-03T16:57:37;9.60;39.20
70734;DHT22;58320;48.804;9.252;2023-04-03T17:00:04;9.60;39.40
70734;DHT22;58320;48.804;9.252;2023-04-03T17:02:31;9.50;39.40
70734;DHT22;58320;48.804;9.252;2023-04-03T17:04:56;9.40;39.00
70734;DHT22;58320;48.804;9.252;2023-04-03T17:07:24;9.30;39.40
70734;DHT22;58320;48.804;9.252;2023-04-03T17:09:50;9.10;40.90
70734;DHT22;58320;48.804;9.252;2023-04-03T17:12:17;9.10;40.70
70734;DHT22;58320;48.804;9.252;2023-04-03T17:14:43;9.00;40.40
70734;DHT22;58320;48.804;9.252;2023-04-03T17:17:09;8.80;40.70
70734;DHT22;58320;48.804;9.252;2023-04-03T17:19:36;8.60;39.90
70734;DHT22;58320;48.804;9.252;2023-04-03T17:22:03;8.50;40.70
70734;DHT22;58320;48.804;9.252;2023-04-03T17:24:28;8.40;41.10
70734;DHT22;58320;48.804;9.252;2023-04-03T17:26:54;8.20;40.90
70734;DHT22;58320;48.804;9.252;2023-04-03T17:29:20;7.90;42.10
70734;DHT22;58320;48.804;9.252;2023-04-03T17:31:46;7.60;42.80
70734;DHT22;58320;48.804;9.252;2023-04-03T17:34:12;7.40;43.30
70734;DHT22;58320;48.804;9.252;2023-04-03T17:36:38;7.20;44.30
70734;DHT22;58320;48.804;9.252;2023-04-03T17:39:05;7.00;44.80
70734;DHT22;58320;48.804;9.252;2023-04-03T17:41:31;6.90;44.40
70734;DHT22;58320;48.804;9.252;2023-04-03T17:43:57;6.80;44.80
70734;DHT22;58320;48.804;9.252;2023-04-03T17:46:24;6.80;45.10
70734;DHT22;58320;48.804;9.252;2023-04-03T17:48:51;6.70;46.10